sensor_id;sensor_type;location;lat;lon;timestamp;P1;durP1;ratioP1;P2;durP2;ratioP2
26620;SDS011;14253;44.840;10.444;2023-08-07T00:01:59;11.20;;;2.15;;
26620;SDS011;14253;44.840;10.444;2023-08-07T00:04:25;9.05;;;2.25;;
26620;SDS011;14253;44.840;10.444;2023-08-07T00:06:51;9.15;;;2.10;;
26620;SDS011;14253;44.840;10.444;2023-08-07T00:09:17;9.02;;;2.55;;
26620;SDS011;14253;44.840;10.444;2023-08-07T00:11:42;10.68;;;2.00;;
26620;SDS011;14253;44.840;10.444;2023-08-07T00:14:08;8.13;;;1.70;;
26620;SDS011;14253;44.840;10.444;2023-08-07T00:16:34;10.73;;;2.00;;
26620;SDS011;14253;44.840;10.444;2023-08-07T00:19:01;12.80;;;1.75;;
26620;SDS011;14253;44.840;10.444;2023-08-07T00:21:28;8.20;;;1.88;;
26620;SDS011;14253;44.840;10.444;2023-08-07T00:23:54;13.07;;;2.13;;
26620;SDS011;14253;44.840;10.444;2023-08-07T00:26:20;11.25;;;1.63;;
26620;SDS011;14253;44.840;10.444;2023-08-07T00:28:46;9.65;;;1.73;;
26620;SDS011;14253;44.840;10.444;2023-08-07T00:31:12;13.73;;;2.20;;
26620;SDS011;14253;44.840;10.444;2023-08-07T00:33:39;8.68;;;2.05;;
26620;SDS011;14253;44.840;10.444;2023-08-07T00:36:05;9.20;;;2.03;;
26620;SDS011;14253;44.840;10.444;2023-08-07T00:38:31;10.93;;;1.80;;
26620;SDS011;14253;44.840;10.444;2023-08-07T00:40:57;12.63;;;2.10;;
26620;SDS011;14253;44.840;10.444;2023-08-07T00:43:25;12.70;;;1.73;;
26620;SDS011;14253;44.840;10.444;2023-08-07T00:45:51;13.35;;;2.20;;
26620;SDS011;14253;44.840;10.444;2023-08-07T00:48:17;11.13;;;2.28;;
26620;SDS011;14253;44.840;10.444;2023-08-07T00:50:43;11.88;;;3.05;;
26620;SDS011;14253;44.840;10.444;2023-08-07T00:53:11;10.15;;;2.05;;
26620;SDS011;14253;44.840;10.444;2023-08-07T00:55:37;7.50;;;1.80;;
26620;SDS011;14253;44.840;10.444;2023-08-07T00:58:03;11.48;;;1.80;;
26620;SDS011;14253;44.840;10.444;2023-08-07T01:00:29;10.43;;;1.90;;
26620;SDS011;14253;44.840;10.444;2023-08-07T01:02:58;13.73;;;2.70;;
26620;SDS011;14253;44.840;10.444;2023-08-07T01:05:26;9.20;;;2.00;;
26620;SDS011;14253;44.840;10.444;2023-08-07T01:07:53;10.40;;;1.90;;
26620;SDS011;14253;44.840;10.444;2023-08-07T01:10:25;10.93;;;1.95;;
26620;SDS011;14253;44.840;10.444;2023-08-07T01:13:10;12.43;;;2.20;;
26620;SDS011;14253;44.840;10.444;2023-08-07T01:15:45;10.95;;;2.03;;
26620;SDS011;14253;44.840;10.444;2023-08-07T01:18:15;10.15;;;2.25;;
26620;SDS011;14253;44.840;10.444;2023-08-07T01:20:41;16.10;;;2.10;;
26620;SDS011;14253;44.840;10.444;2023-08-07T01:23:07;9.68;;;1.92;;
26620;SDS011;14253;44.840;10.444;2023-08-07T01:25:34;8.93;;;1.83;;
26620;SDS011;14253;44.840;10.444;2023-08-07T01:28:08;8.48;;;2.38;;
26620;SDS011;14253;44.840;10.444;2023-08-07T01:31:03;12.88;;;2.58;;
26620;SDS011;14253;44.840;10.444;2023-08-07T01:33:34;9.32;;;2.22;;
26620;SDS011;14253;44.840;10.444;2023-08-07T01:36:25;8.80;;;2.42;;
26620;SDS011;14253;44.840;10.444;2023-08-07T01:38:54;11.52;;;2.45;;
26620;SDS011;14253;44.840;10.444;2023-08-07T01:41:23;11.18;;;3.10;;
26620;SDS011;14253;44.840;10.444;2023-08-07T01:43:50;8.15;;;2.20;;
26620;SDS011;14253;44.840;10.444;2023-08-07T01:46:16;13.65;;;3.03;;
26620;SDS011;14253;44.840;10.444;2023-08-07T01:48:42;15.30;;;2.67;;
26620;SDS011;14253;44.840;10.444;2023-08-07T01:51:08;9.15;;;2.30;;
26620;SDS011;14253;44.840;10.444;2023-08-07T01:53:34;8.05;;;2.03;;
26620;SDS011;14253;44.840;10.444;2023-08-07T01:56:00;10.32;;;2.08;;
26620;SDS011;14253;44.840;10.444;2023-08-07T01:58:26;13.52;;;2.90;;
26620;SDS011;14253;44.840;10.444;2023-08-07T02:00:52;10.55;;;3.08;;
26620;SDS011;14253;44.840;10.444;2023-08-07T02:03:19;14.20;;;3.10;;
26620;SDS011;14253;44.840;10.444;2023-08-07T02:05:45;7.38;;;2.13;;
26620;SDS011;14253;44.840;10.444;2023-08-07T02:08:11;9.85;;;2.60;;
26620;SDS011;14253;44.840;10.444;2023-08-07T02:10:38;8.43;;;2.55;;
26620;SDS011;14253;44.840;10.444;2023-08-07T02:13:03;9.93;;;2.10;;
26620;SDS011;14253;44.840;10.444;2023-08-07T02:15:30;12.55;;;2.92;;
26620;SDS011;14253;44.840;10.444;2023-08-07T02:17:56;16.60;;;3.00;;
26620;SDS011;14253;44.840;10.444;2023-08-07T02:20:23;6.30;;;2.20;;
26620;SDS011;14253;44.840;10.444;2023-08-07T02:22:49;11.68;;;2.67;;
26620;SDS011;14253;44.840;10.444;2023-08-07T02:25:15;11.82;;;2.10;;
26620;SDS011;14253;44.840;10.444;2023-08-07T02:27:41;11.82;;;2.15;;
26620;SDS011;14253;44.840;10.444;2023-08-07T02:30:07;16.63;;;2.72;;
26620;SDS011;14253;44.840;10.444;2023-08-07T02:32:33;12.68;;;2.72;;
26620;SDS011;14253;44.840;10.444;2023-08-07T02:35:00;13.23;;;2.92;;
26620;SDS011;14253;44.840;10.444;2023-08-07T02:37:30;8.65;;;2.40;;
26620;SDS011;14253;44.840;10.444;2023-08-07T02:40:15;8.65;;;2.35;;
26620;SDS011;14253;44.840;10.444;2023-08-07T02:43:08;11.15;;;3.40;;
26620;SDS011;14253;44.840;10.444;2023-08-07T02:45:52;8.25;;;2.75;;
26620;SDS011;14253;44.840;10.444;2023-08-07T02:48:34;8.20;;;2.80;;
26620;SDS011;14253;44.840;10.444;2023-08-07T02:51:11;10.23;;;2.73;;
26620;SDS011;14253;44.840;10.444;2023-08-07T02:53:38;7.88;;;2.70;;
26620;SDS011;14253;44.840;10.444;2023-08-07T02:56:04;11.85;;;3.15;;
26620;SDS011;14253;44.840;10.444;2023-08-07T02:58:29;10.70;;;3.22;;
26620;SDS011;14253;44.840;10.444;2023-08-07T03:00:56;15.40;;;3.47;;
26620;SDS011;14253;44.840;10.444;2023-08-07T03:03:22;10.02;;;3.08;;
26620;SDS011;14253;44.840;10.444;2023-08-07T03:05:48;9.85;;;2.97;;
26620;SDS011;14253;44.840;10.444;2023-08-07T03:08:15;9.88;;;2.85;;
26620;SDS011;14253;44.840;10.444;2023-08-07T03:10:41;6.63;;;2.33;;
26620;SDS011;14253;44.840;10.444;2023-08-07T03:13:07;10.05;;;2.55;;
26620;SDS011;14253;44.840;10.444;2023-08-07T03:15:34;7.60;;;2.08;;
26620;SDS011;14253;44.840;10.444;2023-08-07T03:18:00;8.70;;;2.45;;
26620;SDS011;14253;44.840;10.444;2023-08-07T03:20:25;5.05;;;1.83;;
26620;SDS011;14253;44.840;10.444;2023-08-07T03:22:51;3.65;;;1.92;;
26620;SDS011;14253;44.840;10.444;2023-08-07T03:25:17;3.15;;;2.17;;
26620;SDS011;14253;44.840;10.444;2023-08-07T03:27:43;5.80;;;2.33;;
26620;SDS011;14253;44.840;10.444;2023-08-07T03:30:09;10.45;;;1.90;;
26620;SDS011;14253;44.840;10.444;2023-08-07T03:32:36;3.03;;;1.95;;
26620;SDS011;14253;44.840;10.444;2023-08-07T03:35:02;4.63;;;2.25;;
26620;SDS011;14253;44.840;10.444;2023-08-07T03:37:28;6.05;;;1.85;;
26620;SDS011;14253;44.840;10.444;2023-08-07T03:39:54;3.80;;;1.85;;
26620;SDS011;14253;44.840;10.444;2023-08-07T03:42:20;9.95;;;2.10;;
26620;SDS011;14253;44.840;10.444;2023-08-07T03:44:46;5.22;;;1.95;;
26620;SDS011;14253;44.840;10.444;2023-08-07T03:47:12;6.28;;;2.13;;
26620;SDS011;14253;44.840;10.444;2023-08-07T03:49:39;6.90;;;2.08;;
26620;SDS011;14253;44.840;10.444;2023-08-07T03:52:05;6.82;;;1.95;;
26620;SDS011;14253;44.840;10.444;2023-08-07T03:54:32;3.85;;;1.77;;
26620;SDS011;14253;44.840;10.444;2023-08-07T03:56:57;5.97;;;2.08;;
26620;SDS011;14253;44.840;10.444;2023-08-07T03:59:23;5.68;;;2.08;;
26620;SDS011;14253;44.840;10.444;2023-08-07T04:01:49;3.17;;;1.98;;
26620;SDS011;14253;44.840;10.444;2023-08-07T04:04:15;7.22;;;1.70;;
26620;SDS011;14253;44.840;10.444;2023-08-07T04:06:41;2.95;;;1.30;;
26620;SDS011;14253;44.840;10.444;2023-08-07T04:09:09;5.35;;;1.52;;
26620;SDS011;14253;44.840;10.444;2023-08-07T04:11:35;4.93;;;1.40;;
26620;SDS011;14253;44.840;10.444;2023-08-07T04:14:02;5.88;;;1.50;;
26620;SDS011;14253;44.840;10.444;2023-08-07T04:16:29;4.10;;;1.38;;
26620;SDS011;14253;44.840;10.444;2023-08-07T04:18:56;7.07;;;1.60;;
26620;SDS011;14253;44.840;10.444;2023-08-07T04:21:22;4.15;;;1.90;;
26620;SDS011;14253;44.840;10.444;2023-08-07T04:23:48;4.82;;;1.75;;
26620;SDS011;14253;44.840;10.444;2023-08-07T04:26:14;3.58;;;1.60;;
26620;SDS011;14253;44.840;10.444;2023-08-07T04:28:40;8.77;;;2.28;;
26620;SDS011;14253;44.840;10.444;2023-08-07T04:31:06;5.30;;;1.80;;
26620;SDS011;14253;44.840;10.444;2023-08-07T04:33:33;5.65;;;1.80;;
26620;SDS011;14253;44.840;10.444;2023-08-07T04:35:59;7.88;;;2.17;;
26620;SDS011;14253;44.840;10.444;2023-08-07T04:38:25;7.25;;;2.42;;
26620;SDS011;14253;44.840;10.444;2023-08-07T04:40:51;5.53;;;1.88;;
26620;SDS011;14253;44.840;10.444;2023-08-07T04:43:18;4.93;;;1.80;;
26620;SDS011;14253;44.840;10.444;2023-08-07T04:45:47;8.05;;;2.33;;
26620;SDS011;14253;44.840;10.444;2023-08-07T04:48:14;5.82;;;2.10;;
26620;SDS011;14253;44.840;10.444;2023-08-07T04:50:41;3.85;;;1.42;;
26620;SDS011;14253;44.840;10.444;2023-08-07T04:53:07;6.07;;;2.38;;
26620;SDS011;14253;44.840;10.444;2023-08-07T04:55:33;2.78;;;1.70;;
26620;SDS011;14253;44.840;10.444;2023-08-07T04:57:59;5.47;;;1.85;;
26620;SDS011;14253;44.840;10.444;2023-08-07T05:00:25;4.90;;;2.05;;
26620;SDS011;14253;44.840;10.444;2023-08-07T05:02:52;5.40;;;1.90;;
26620;SDS011;14253;44.840;10.444;2023-08-07T05:05:18;4.80;;;2.10;;
26620;SDS011;14253;44.840;10.444;2023-08-07T05:07:46;6.10;;;1.92;;
26620;SDS011;14253;44.840;10.444;2023-08-07T05:10:13;8.05;;;1.80;;
26620;SDS011;14253;44.840;10.444;2023-08-07T05:12:39;8.57;;;2.53;;
26620;SDS011;14253;44.840;10.444;2023-08-07T05:15:05;5.13;;;1.77;;
26620;SDS011;14253;44.840;10.444;2023-08-07T05:17:31;6.13;;;1.85;;
26620;SDS011;14253;44.840;10.444;2023-08-07T05:19:57;6.95;;;2.10;;
26620;SDS011;14253;44.840;10.444;2023-08-07T05:22:23;8.35;;;2.33;;
26620;SDS011;14253;44.840;10.444;2023-08-07T05:24:49;5.22;;;2.38;;
26620;SDS011;14253;44.840;10.444;2023-08-07T05:27:15;7.22;;;3.10;;
26620;SDS011;14253;44.840;10.444;2023-08-07T05:29:41;8.68;;;2.00;;
26620;SDS011;14253;44.840;10.444;2023-08-07T05:32:14;4.43;;;1.60;;
26620;SDS011;14253;44.840;10.444;2023-08-07T05:34:40;4.38;;;1.60;;
26620;SDS011;14253;44.840;10.444;2023-08-07T05:37:06;3.42;;;1.55;;
26620;SDS011;14253;44.840;10.444;2023-08-07T05:39:34;3.15;;;1.58;;
26620;SDS011;14253;44.840;10.444;2023-08-07T05:42:00;6.63;;;1.50;;
26620;SDS011;14253;44.840;10.444;2023-08-07T05:44:27;5.60;;;1.23;;
26620;SDS011;14253;44.840;10.444;2023-08-07T05:46:54;2.78;;;1.30;;
26620;SDS011;14253;44.840;10.444;2023-08-07T05:49:22;5.20;;;1.30;;
26620;SDS011;14253;44.840;10.444;2023-08-07T05:51:50;3.65;;;1.60;;
26620;SDS011;14253;44.840;10.444;2023-08-07T05:54:16;3.78;;;1.00;;
26620;SDS011;14253;44.840;10.444;2023-08-07T05:56:42;2.90;;;1.20;;
26620;SDS011;14253;44.840;10.444;2023-08-07T05:59:08;2.60;;;1.63;;
26620;SDS011;14253;44.840;10.444;2023-08-07T06:01:34;3.65;;;1.23;;
26620;SDS011;14253;44.840;10.444;2023-08-07T06:04:02;3.80;;;1.15;;
26620;SDS011;14253;44.840;10.444;2023-08-07T06:06:28;3.40;;;1.38;;
26620;SDS011;14253;44.840;10.444;2023-08-07T06:08:54;2.90;;;1.10;;
26620;SDS011;14253;44.840;10.444;2023-08-07T06:11:20;5.05;;;1.00;;
26620;SDS011;14253;44.840;10.444;2023-08-07T06:13:46;39.05;;;2.22;;
26620;SDS011;14253;44.840;10.444;2023-08-07T06:16:14;1.88;;;0.82;;
26620;SDS011;14253;44.840;10.444;2023-08-07T06:18:40;5.75;;;1.10;;
26620;SDS011;14253;44.840;10.444;2023-08-07T06:21:05;2.47;;;0.80;;
26620;SDS011;14253;44.840;10.444;2023-08-07T06:23:35;2.45;;;0.75;;
26620;SDS011;14253;44.840;10.444;2023-08-07T06:26:01;3.17;;;0.90;;
26620;SDS011;14253;44.840;10.444;2023-08-07T06:28:32;3.72;;;0.75;;
26620;SDS011;14253;44.840;10.444;2023-08-07T06:31:07;1.38;;;0.60;;
26620;SDS011;14253;44.840;10.444;2023-08-07T06:33:35;2.45;;;0.77;;
26620;SDS011;14253;44.840;10.444;2023-08-07T06:36:01;3.40;;;0.77;;
26620;SDS011;14253;44.840;10.444;2023-08-07T06:38:29;1.25;;;0.40;;
26620;SDS011;14253;44.840;10.444;2023-08-07T06:40:55;1.30;;;0.50;;
26620;SDS011;14253;44.840;10.444;2023-08-07T06:43:21;1.08;;;0.45;;
26620;SDS011;14253;44.840;10.444;2023-08-07T06:45:50;2.28;;;0.50;;
26620;SDS011;14253;44.840;10.444;2023-08-07T06:48:20;2.28;;;0.43;;
26620;SDS011;14253;44.840;10.444;2023-08-07T06:50:47;1.60;;;0.45;;
26620;SDS011;14253;44.840;10.444;2023-08-07T06:53:14;2.33;;;0.40;;
26620;SDS011;14253;44.840;10.444;2023-08-07T06:55:43;1.42;;;0.70;;
26620;SDS011;14253;44.840;10.444;2023-08-07T06:58:09;1.10;;;0.50;;
26620;SDS011;14253;44.840;10.444;2023-08-07T07:00:35;1.23;;;0.40;;
26620;SDS011;14253;44.840;10.444;2023-08-07T07:03:02;3.42;;;0.45;;
26620;SDS011;14253;44.840;10.444;2023-08-07T07:05:31;2.80;;;0.60;;
26620;SDS011;14253;44.840;10.444;2023-08-07T07:08:03;1.33;;;0.40;;
26620;SDS011;14253;44.840;10.444;2023-08-07T07:10:29;3.75;;;0.50;;
26620;SDS011;14253;44.840;10.444;2023-08-07T07:12:56;4.55;;;0.60;;
26620;SDS011;14253;44.840;10.444;2023-08-07T07:15:22;0.70;;;0.30;;
26620;SDS011;14253;44.840;10.444;2023-08-07T07:17:48;0.40;;;0.20;;
26620;SDS011;14253;44.840;10.444;2023-08-07T07:20:14;1.95;;;0.40;;
26620;SDS011;14253;44.840;10.444;2023-08-07T07:22:40;1.17;;;0.25;;
26620;SDS011;14253;44.840;10.444;2023-08-07T07:25:06;1.98;;;0.52;;
26620;SDS011;14253;44.840;10.444;2023-08-07T07:27:32;0.90;;;0.40;;
26620;SDS011;14253;44.840;10.444;2023-08-07T07:29:58;2.88;;;0.30;;
26620;SDS011;14253;44.840;10.444;2023-08-07T07:32:25;3.53;;;0.20;;
26620;SDS011;14253;44.840;10.444;2023-08-07T07:34:51;2.65;;;0.40;;
26620;SDS011;14253;44.840;10.444;2023-08-07T07:37:18;1.58;;;0.57;;
26620;SDS011;14253;44.840;10.444;2023-08-07T07:39:44;0.60;;;0.22;;
26620;SDS011;14253;44.840;10.444;2023-08-07T07:42:10;0.77;;;0.30;;
26620;SDS011;14253;44.840;10.444;2023-08-07T07:44:36;0.38;;;0.20;;
26620;SDS011;14253;44.840;10.444;2023-08-07T07:47:04;0.55;;;0.28;;
26620;SDS011;14253;44.840;10.444;2023-08-07T07:49:32;0.60;;;0.30;;
26620;SDS011;14253;44.840;10.444;2023-08-07T07:51:58;3.03;;;0.25;;
26620;SDS011;14253;44.840;10.444;2023-08-07T07:54:24;1.05;;;0.75;;
26620;SDS011;14253;44.840;10.444;2023-08-07T07:56:50;0.80;;;0.20;;
26620;SDS011;14253;44.840;10.444;2023-08-07T07:59:16;0.80;;;0.30;;
26620;SDS011;14253;44.840;10.444;2023-08-07T08:01:42;0.30;;;0.30;;
26620;SDS011;14253;44.840;10.444;2023-08-07T08:04:10;0.73;;;0.32;;
26620;SDS011;14253;44.840;10.444;2023-08-07T08:06:36;3.55;;;0.32;;
26620;SDS011;14253;44.840;10.444;2023-08-07T08:09:03;0.90;;;0.30;;
26620;SDS011;14253;44.840;10.444;2023-08-07T08:11:30;0.77;;;0.30;;
26620;SDS011;14253;44.840;10.444;2023-08-07T08:13:56;5.28;;;0.50;;
26620;SDS011;14253;44.840;10.444;2023-08-07T08:16:22;1.92;;;0.30;;
26620;SDS011;14253;44.840;10.444;2023-08-07T08:18:48;1.08;;;0.30;;
26620;SDS011;14253;44.840;10.444;2023-08-07T08:21:14;1.58;;;0.40;;
26620;SDS011;14253;44.840;10.444;2023-08-07T08:23:40;6.20;;;0.40;;
26620;SDS011;14253;44.840;10.444;2023-08-07T08:26:06;0.60;;;0.40;;
26620;SDS011;14253;44.840;10.444;2023-08-07T08:28:32;1.45;;;0.40;;
26620;SDS011;14253;44.840;10.444;2023-08-07T08:30:58;0.65;;;0.10;;
26620;SDS011;14253;44.840;10.444;2023-08-07T08:33:24;0.70;;;0.20;;
26620;SDS011;14253;44.840;10.444;2023-08-07T08:35:50;2.33;;;0.35;;
26620;SDS011;14253;44.840;10.444;2023-08-07T08:38:16;0.32;;;0.20;;
26620;SDS011;14253;44.840;10.444;2023-08-07T08:40:42;1.17;;;0.50;;
26620;SDS011;14253;44.840;10.444;2023-08-07T08:43:10;2.55;;;0.40;;
26620;SDS011;14253;44.840;10.444;2023-08-07T08:45:39;0.77;;;0.40;;
26620;SDS011;14253;44.840;10.444;2023-08-07T08:48:06;1.42;;;0.47;;
26620;SDS011;14253;44.840;10.444;2023-08-07T08:50:36;1.27;;;0.22;;
26620;SDS011;14253;44.840;10.444;2023-08-07T08:53:04;1.73;;;0.50;;
26620;SDS011;14253;44.840;10.444;2023-08-07T08:55:33;2.38;;;0.60;;
26620;SDS011;14253;44.840;10.444;2023-08-07T08:57:59;2.20;;;0.32;;
26620;SDS011;14253;44.840;10.444;2023-08-07T09:00:28;0.47;;;0.30;;
26620;SDS011;14253;44.840;10.444;2023-08-07T09:03:03;3.38;;;0.32;;
26620;SDS011;14253;44.840;10.444;2023-08-07T09:05:31;1.95;;;0.50;;
26620;SDS011;14253;44.840;10.444;2023-08-07T09:07:57;0.77;;;0.40;;
26620;SDS011;14253;44.840;10.444;2023-08-07T09:10:26;0.70;;;0.40;;
26620;SDS011;14253;44.840;10.444;2023-08-07T09:12:54;1.02;;;0.20;;
26620;SDS011;14253;44.840;10.444;2023-08-07T09:15:25;0.40;;;0.30;;
26620;SDS011;14253;44.840;10.444;2023-08-07T09:17:52;0.65;;;0.32;;
26620;SDS011;14253;44.840;10.444;2023-08-07T09:20:20;3.30;;;0.40;;
26620;SDS011;14253;44.840;10.444;2023-08-07T09:22:48;4.35;;;0.47;;
26620;SDS011;14253;44.840;10.444;2023-08-07T09:25:14;1.50;;;0.30;;
26620;SDS011;14253;44.840;10.444;2023-08-07T09:27:52;0.75;;;0.40;;
26620;SDS011;14253;44.840;10.444;2023-08-07T09:30:20;1.98;;;0.20;;
26620;SDS011;14253;44.840;10.444;2023-08-07T09:32:49;1.38;;;0.38;;
26620;SDS011;14253;44.840;10.444;2023-08-07T09:35:15;1.00;;;0.60;;
26620;SDS011;14253;44.840;10.444;2023-08-07T09:37:46;1.25;;;0.20;;
26620;SDS011;14253;44.840;10.444;2023-08-07T09:40:12;0.52;;;0.30;;
26620;SDS011;14253;44.840;10.444;2023-08-07T09:42:40;1.73;;;0.47;;
26620;SDS011;14253;44.840;10.444;2023-08-07T09:45:23;0.68;;;0.38;;
26620;SDS011;14253;44.840;10.444;2023-08-07T09:47:57;1.23;;;0.43;;
26620;SDS011;14253;44.840;10.444;2023-08-07T09:50:27;1.30;;;0.40;;
26620;SDS011;14253;44.840;10.444;2023-08-07T09:52:54;2.83;;;0.40;;
26620;SDS011;14253;44.840;10.444;2023-08-07T09:55:21;1.27;;;0.47;;
26620;SDS011;14253;44.840;10.444;2023-08-07T09:57:48;2.58;;;0.52;;
26620;SDS011;14253;44.840;10.444;2023-08-07T10:00:15;1.10;;;0.30;;
26620;SDS011;14253;44.840;10.444;2023-08-07T10:02:42;0.70;;;0.30;;
26620;SDS011;14253;44.840;10.444;2023-08-07T10:05:11;1.15;;;0.40;;
26620;SDS011;14253;44.840;10.444;2023-08-07T10:07:38;2.25;;;0.40;;
26620;SDS011;14253;44.840;10.444;2023-08-07T10:10:05;1.15;;;0.40;;
26620;SDS011;14253;44.840;10.444;2023-08-07T10:12:35;2.67;;;0.50;;
26620;SDS011;14253;44.840;10.444;2023-08-07T10:15:02;3.42;;;0.35;;
26620;SDS011;14253;44.840;10.444;2023-08-07T10:17:29;1.58;;;0.50;;
26620;SDS011;14253;44.840;10.444;2023-08-07T10:19:57;0.80;;;0.50;;
26620;SDS011;14253;44.840;10.444;2023-08-07T10:22:23;2.05;;;0.40;;
26620;SDS011;14253;44.840;10.444;2023-08-07T10:24:52;3.33;;;0.50;;
26620;SDS011;14253;44.840;10.444;2023-08-07T10:27:19;3.90;;;0.60;;
26620;SDS011;14253;44.840;10.444;2023-08-07T10:29:48;3.00;;;0.70;;
26620;SDS011;14253;44.840;10.444;2023-08-07T10:32:17;1.60;;;0.47;;
26620;SDS011;14253;44.840;10.444;2023-08-07T10:34:49;3.73;;;0.53;;
26620;SDS011;14253;44.840;10.444;2023-08-07T10:38:04;1.33;;;0.68;;
26620;SDS011;14253;44.840;10.444;2023-08-07T10:40:08;3.97;;;0.43;;
26620;SDS011;14253;44.840;10.444;2023-08-07T10:45:20;1.38;;;0.47;;
26620;SDS011;14253;44.840;10.444;2023-08-07T10:48:06;2.35;;;0.30;;
26620;SDS011;14253;44.840;10.444;2023-08-07T10:50:45;1.67;;;0.40;;
26620;SDS011;14253;44.840;10.444;2023-08-07T10:53:38;0.52;;;0.43;;
26620;SDS011;14253;44.840;10.444;2023-08-07T10:56:08;1.20;;;0.40;;
26620;SDS011;14253;44.840;10.444;2023-08-07T10:58:38;0.95;;;0.47;;
26620;SDS011;14253;44.840;10.444;2023-08-07T11:01:50;1.23;;;0.40;;
26620;SDS011;14253;44.840;10.444;2023-08-07T11:03:57;0.68;;;0.30;;
26620;SDS011;14253;44.840;10.444;2023-08-07T11:06:31;2.05;;;0.40;;
26620;SDS011;14253;44.840;10.444;2023-08-07T11:08:59;0.75;;;0.30;;
26620;SDS011;14253;44.840;10.444;2023-08-07T11:11:29;1.77;;;0.40;;
26620;SDS011;14253;44.840;10.444;2023-08-07T11:14:08;0.40;;;0.22;;
26620;SDS011;14253;44.840;10.444;2023-08-07T11:19:02;0.65;;;0.40;;
26620;SDS011;14253;44.840;10.444;2023-08-07T11:21:32;1.17;;;0.22;;
26620;SDS011;14253;44.840;10.444;2023-08-07T11:23:59;0.73;;;0.43;;
26620;SDS011;14253;44.840;10.444;2023-08-07T11:26:25;1.02;;;0.38;;
26620;SDS011;14253;44.840;10.444;2023-08-07T11:28:53;0.43;;;0.20;;
26620;SDS011;14253;44.840;10.444;2023-08-07T11:31:20;0.50;;;0.30;;
26620;SDS011;14253;44.840;10.444;2023-08-07T11:33:49;1.25;;;0.40;;
26620;SDS011;14253;44.840;10.444;2023-08-07T11:36:16;1.02;;;0.28;;
26620;SDS011;14253;44.840;10.444;2023-08-07T11:38:43;0.57;;;0.30;;
26620;SDS011;14253;44.840;10.444;2023-08-07T11:41:13;1.08;;;0.40;;
26620;SDS011;14253;44.840;10.444;2023-08-07T11:46:08;4.00;;;0.35;;
26620;SDS011;14253;44.840;10.444;2023-08-07T11:48:36;1.80;;;0.50;;
26620;SDS011;14253;44.840;10.444;2023-08-07T11:51:03;0.52;;;0.30;;
26620;SDS011;14253;44.840;10.444;2023-08-07T11:53:33;7.03;;;0.52;;
26620;SDS011;14253;44.840;10.444;2023-08-07T11:56:01;0.35;;;0.20;;
26620;SDS011;14253;44.840;10.444;2023-08-07T11:58:48;2.70;;;0.47;;
26620;SDS011;14253;44.840;10.444;2023-08-07T12:01:20;1.17;;;0.22;;
26620;SDS011;14253;44.840;10.444;2023-08-07T12:06:21;4.47;;;0.50;;
26620;SDS011;14253;44.840;10.444;2023-08-07T12:08:53;1.58;;;0.38;;
26620;SDS011;14253;44.840;10.444;2023-08-07T12:11:21;1.42;;;0.85;;
26620;SDS011;14253;44.840;10.444;2023-08-07T12:13:47;0.32;;;0.32;;
26620;SDS011;14253;44.840;10.444;2023-08-07T12:16:14;1.13;;;0.47;;
26620;SDS011;14253;44.840;10.444;2023-08-07T12:18:44;0.57;;;0.30;;
26620;SDS011;14253;44.840;10.444;2023-08-07T12:21:13;0.30;;;0.30;;
26620;SDS011;14253;44.840;10.444;2023-08-07T12:23:41;1.90;;;0.70;;
26620;SDS011;14253;44.840;10.444;2023-08-07T12:26:07;0.77;;;0.57;;
26620;SDS011;14253;44.840;10.444;2023-08-07T12:28:34;2.80;;;0.60;;
26620;SDS011;14253;44.840;10.444;2023-08-07T12:31:01;0.98;;;0.50;;
26620;SDS011;14253;44.840;10.444;2023-08-07T12:33:30;1.65;;;0.47;;
26620;SDS011;14253;44.840;10.444;2023-08-07T12:35:57;2.28;;;0.40;;
26620;SDS011;14253;44.840;10.444;2023-08-07T12:38:23;0.55;;;0.30;;
26620;SDS011;14253;44.840;10.444;2023-08-07T12:40:49;2.72;;;0.38;;
26620;SDS011;14253;44.840;10.444;2023-08-07T12:43:15;0.60;;;0.30;;
26620;SDS011;14253;44.840;10.444;2023-08-07T12:45:41;1.40;;;0.35;;
26620;SDS011;14253;44.840;10.444;2023-08-07T12:48:08;1.85;;;0.40;;
26620;SDS011;14253;44.840;10.444;2023-08-07T12:50:34;3.83;;;0.43;;
26620;SDS011;14253;44.840;10.444;2023-08-07T12:53:00;1.38;;;0.40;;
26620;SDS011;14253;44.840;10.444;2023-08-07T12:55:26;0.75;;;0.55;;
26620;SDS011;14253;44.840;10.444;2023-08-07T12:57:53;1.02;;;0.40;;
26620;SDS011;14253;44.840;10.444;2023-08-07T13:00:20;2.50;;;0.50;;
26620;SDS011;14253;44.840;10.444;2023-08-07T13:02:48;2.53;;;0.30;;
26620;SDS011;14253;44.840;10.444;2023-08-07T13:05:15;1.83;;;0.60;;
26620;SDS011;14253;44.840;10.444;2023-08-07T13:07:44;2.15;;;0.50;;
26620;SDS011;14253;44.840;10.444;2023-08-07T13:10:11;0.98;;;0.30;;
26620;SDS011;14253;44.840;10.444;2023-08-07T13:12:39;1.52;;;0.30;;
26620;SDS011;14253;44.840;10.444;2023-08-07T13:15:07;2.03;;;0.35;;
26620;SDS011;14253;44.840;10.444;2023-08-07T13:17:35;0.80;;;0.30;;
26620;SDS011;14253;44.840;10.444;2023-08-07T13:20:02;0.60;;;0.40;;
26620;SDS011;14253;44.840;10.444;2023-08-07T13:22:33;0.93;;;0.50;;
26620;SDS011;14253;44.840;10.444;2023-08-07T13:25:00;1.00;;;0.52;;
26620;SDS011;14253;44.840;10.444;2023-08-07T13:27:28;1.27;;;0.52;;
26620;SDS011;14253;44.840;10.444;2023-08-07T13:29:55;0.80;;;0.50;;
26620;SDS011;14253;44.840;10.444;2023-08-07T13:32:21;0.20;;;0.20;;
26620;SDS011;14253;44.840;10.444;2023-08-07T13:34:47;0.80;;;0.45;;
26620;SDS011;14253;44.840;10.444;2023-08-07T13:37:17;0.75;;;0.35;;
26620;SDS011;14253;44.840;10.444;2023-08-07T13:39:43;2.83;;;0.40;;
26620;SDS011;14253;44.840;10.444;2023-08-07T13:42:09;1.45;;;0.43;;
26620;SDS011;14253;44.840;10.444;2023-08-07T13:44:36;1.15;;;0.40;;
26620;SDS011;14253;44.840;10.444;2023-08-07T13:47:03;0.85;;;0.43;;
26620;SDS011;14253;44.840;10.444;2023-08-07T13:49:30;0.93;;;0.40;;
26620;SDS011;14253;44.840;10.444;2023-08-07T13:51:56;1.88;;;0.30;;
26620;SDS011;14253;44.840;10.444;2023-08-07T13:54:22;0.90;;;0.45;;
26620;SDS011;14253;44.840;10.444;2023-08-07T13:56:48;2.40;;;0.65;;
26620;SDS011;14253;44.840;10.444;2023-08-07T13:59:15;0.82;;;0.60;;
26620;SDS011;14253;44.840;10.444;2023-08-07T14:01:41;1.02;;;0.45;;
26620;SDS011;14253;44.840;10.444;2023-08-07T14:04:07;0.88;;;0.43;;
26620;SDS011;14253;44.840;10.444;2023-08-07T14:06:33;1.83;;;0.60;;
26620;SDS011;14253;44.840;10.444;2023-08-07T14:08:59;1.35;;;0.40;;
26620;SDS011;14253;44.840;10.444;2023-08-07T14:11:25;0.63;;;0.40;;
26620;SDS011;14253;44.840;10.444;2023-08-07T14:13:57;2.55;;;0.55;;
26620;SDS011;14253;44.840;10.444;2023-08-07T14:16:23;1.27;;;0.50;;
26620;SDS011;14253;44.840;10.444;2023-08-07T14:18:50;0.90;;;0.60;;
26620;SDS011;14253;44.840;10.444;2023-08-07T14:21:16;0.80;;;0.50;;
26620;SDS011;14253;44.840;10.444;2023-08-07T14:23:42;0.90;;;0.47;;
26620;SDS011;14253;44.840;10.444;2023-08-07T14:26:11;1.85;;;0.32;;
26620;SDS011;14253;44.840;10.444;2023-08-07T14:28:38;2.33;;;0.55;;
26620;SDS011;14253;44.840;10.444;2023-08-07T14:31:07;2.47;;;0.80;;
26620;SDS011;14253;44.840;10.444;2023-08-07T14:33:34;1.38;;;0.40;;
26620;SDS011;14253;44.840;10.444;2023-08-07T14:36:00;2.47;;;0.57;;
26620;SDS011;14253;44.840;10.444;2023-08-07T14:38:27;4.40;;;0.70;;
26620;SDS011;14253;44.840;10.444;2023-08-07T14:40:53;1.00;;;0.57;;
26620;SDS011;14253;44.840;10.444;2023-08-07T14:43:20;0.60;;;0.43;;
26620;SDS011;14253;44.840;10.444;2023-08-07T14:45:47;0.88;;;0.50;;
26620;SDS011;14253;44.840;10.444;2023-08-07T14:48:14;1.52;;;0.47;;